sensor_id;sensor_type;location;lat;lon;timestamp;P1;durP1;ratioP1;P2;durP2;ratioP2
38248;SDS011;24045;51.138;17.126;2023-07-22T00:11:50;6.60;;;4.30;;
38248;SDS011;24045;51.138;17.126;2023-07-22T00:26:53;7.30;;;4.30;;
38248;SDS011;24045;51.138;17.126;2023-07-22T00:41:56;6.20;;;3.60;;
38248;SDS011;24045;51.138;17.126;2023-07-22T00:56:59;6.00;;;3.50;;
38248;SDS011;24045;51.138;17.126;2023-07-22T01:12:02;7.20;;;3.40;;
38248;SDS011;24045;51.138;17.126;2023-07-22T01:27:06;8.30;;;3.50;;
38248;SDS011;24045;51.138;17.126;2023-07-22T01:42:12;7.30;;;3.90;;
38248;SDS011;24045;51.138;17.126;2023-07-22T02:12:18;9.00;;;4.60;;
38248;SDS011;24045;51.138;17.126;2023-07-22T02:27:20;7.50;;;4.10;;
38248;SDS011;24045;51.138;17.126;2023-07-22T03:12:29;10.30;;;6.80;;
38248;SDS011;24045;51.138;17.126;2023-07-22T03:42:34;9.80;;;5.40;;
38248;SDS011;24045;51.138;17.126;2023-07-22T03:57:37;8.00;;;4.90;;
38248;SDS011;24045;51.138;17.126;2023-07-22T04:12:40;8.70;;;4.80;;
38248;SDS011;24045;51.138;17.126;2023-07-22T04:27:44;7.90;;;4.10;;
38248;SDS011;24045;51.138;17.126;2023-07-22T04:42:47;9.10;;;3.80;;
38248;SDS011;24045;51.138;17.126;2023-07-22T04:57:50;7.80;;;3.10;;
38248;SDS011;24045;51.138;17.126;2023-07-22T05:12:54;8.00;;;2.80;;
38248;SDS011;24045;51.138;17.126;2023-07-22T05:27:59;5.00;;;2.50;;
38248;SDS011;24045;51.138;17.126;2023-07-22T05:43:02;8.10;;;2.20;;
38248;SDS011;24045;51.138;17.126;2023-07-22T05:58:05;6.20;;;2.70;;
38248;SDS011;24045;51.138;17.126;2023-07-22T06:13:08;9.50;;;2.70;;
38248;SDS011;24045;51.138;17.126;2023-07-22T06:28:11;9.10;;;2.40;;
38248;SDS011;24045;51.138;17.126;2023-07-22T06:43:14;7.50;;;2.70;;
38248;SDS011;24045;51.138;17.126;2023-07-22T06:58:17;5.90;;;2.20;;
38248;SDS011;24045;51.138;17.126;2023-07-22T07:13:21;7.20;;;2.30;;
38248;SDS011;24045;51.138;17.126;2023-07-22T07:28:24;5.00;;;2.50;;
38248;SDS011;24045;51.138;17.126;2023-07-22T07:43:27;5.90;;;2.90;;
38248;SDS011;24045;51.138;17.126;2023-07-22T07:58:30;5.20;;;2.30;;
38248;SDS011;24045;51.138;17.126;2023-07-22T08:13:33;4.00;;;2.40;;
38248;SDS011;24045;51.138;17.126;2023-07-22T08:28:36;4.00;;;2.10;;
38248;SDS011;24045;51.138;17.126;2023-07-22T08:43:39;6.00;;;1.90;;
38248;SDS011;24045;51.138;17.126;2023-07-22T08:58:43;6.90;;;1.80;;
38248;SDS011;24045;51.138;17.126;2023-07-22T09:13:46;5.30;;;1.50;;
38248;SDS011;24045;51.138;17.126;2023-07-22T09:28:54;3.90;;;1.90;;
38248;SDS011;24045;51.138;17.126;2023-07-22T09:44:02;4.00;;;2.10;;
38248;SDS011;24045;51.138;17.126;2023-07-22T09:59:06;3.90;;;1.90;;
38248;SDS011;24045;51.138;17.126;2023-07-22T10:14:09;5.80;;;2.30;;
38248;SDS011;24045;51.138;17.126;2023-07-22T10:29:15;6.50;;;2.30;;
38248;SDS011;24045;51.138;17.126;2023-07-22T10:44:18;5.00;;;2.70;;
38248;SDS011;24045;51.138;17.126;2023-07-22T10:59:25;5.40;;;2.40;;
38248;SDS011;24045;51.138;17.126;2023-07-22T11:14:30;3.60;;;2.30;;
38248;SDS011;24045;51.138;17.126;2023-07-22T11:29:35;6.70;;;2.70;;
38248;SDS011;24045;51.138;17.126;2023-07-22T11:44:38;6.60;;;3.10;;
38248;SDS011;24045;51.138;17.126;2023-07-22T11:59:50;6.60;;;3.40;;
38248;SDS011;24045;51.138;17.126;2023-07-22T12:14:55;4.90;;;2.70;;
38248;SDS011;24045;51.138;17.126;2023-07-22T12:30:04;7.30;;;2.70;;
38248;SDS011;24045;51.138;17.126;2023-07-22T12:45:08;4.60;;;2.50;;
38248;SDS011;24045;51.138;17.126;2023-07-22T13:00:12;10.60;;;3.00;;
38248;SDS011;24045;51.138;17.126;2023-07-22T13:15:15;5.90;;;2.30;;
38248;SDS011;24045;51.138;17.126;2023-07-22T13:30:18;6.40;;;2.60;;
38248;SDS011;24045;51.138;17.126;2023-07-22T13:45:21;9.60;;;3.40;;
38248;SDS011;24045;51.138;17.126;2023-07-22T14:00:24;5.50;;;2.50;;
38248;SDS011;24045;51.138;17.126;2023-07-22T14:15:27;9.40;;;3.10;;
38248;SDS011;24045;51.138;17.126;2023-07-22T14:30:29;5.40;;;2.70;;
38248;SDS011;24045;51.138;17.126;2023-07-22T14:45:32;7.30;;;2.90;;
38248;SDS011;24045;51.138;17.126;2023-07-22T15:00:35;7.30;;;2.90;;
38248;SDS011;24045;51.138;17.126;2023-07-22T15:15:39;6.70;;;2.80;;
38248;SDS011;24045;51.138;17.126;2023-07-22T15:30:42;7.50;;;2.50;;
38248;SDS011;24045;51.138;17.126;2023-07-22T15:45:45;4.60;;;2.60;;
38248;SDS011;24045;51.138;17.126;2023-07-22T16:00:48;6.10;;;3.00;;
38248;SDS011;24045;51.138;17.126;2023-07-22T16:15:51;5.40;;;2.80;;
38248;SDS011;24045;51.138;17.126;2023-07-22T16:30:54;6.30;;;2.80;;
38248;SDS011;24045;51.138;17.126;2023-07-22T16:45:57;6.50;;;2.90;;
38248;SDS011;24045;51.138;17.126;2023-07-22T17:01:00;6.80;;;3.40;;
38248;SDS011;24045;51.138;17.126;2023-07-22T17:16:04;4.90;;;2.60;;
38248;SDS011;24045;51.138;17.126;2023-07-22T17:31:07;6.70;;;3.00;;
38248;SDS011;24045;51.138;17.126;2023-07-22T17:46:11;5.30;;;2.80;;
38248;SDS011;24045;51.138;17.126;2023-07-22T18:01:18;7.60;;;3.20;;
38248;SDS011;24045;51.138;17.126;2023-07-22T18:16:21;8.80;;;3.70;;
38248;SDS011;24045;51.138;17.126;2023-07-22T18:31:24;7.30;;;3.80;;
38248;SDS011;24045;51.138;17.126;2023-07-22T18:46:27;10.00;;;3.30;;
38248;SDS011;24045;51.138;17.126;2023-07-22T19:01:30;7.50;;;4.00;;
38248;SDS011;24045;51.138;17.126;2023-07-22T19:16:33;7.80;;;3.60;;
38248;SDS011;24045;51.138;17.126;2023-07-22T19:31:37;7.30;;;3.50;;
38248;SDS011;24045;51.138;17.126;2023-07-22T19:46:40;9.20;;;4.50;;
38248;SDS011;24045;51.138;17.126;2023-07-22T20:01:43;10.00;;;4.50;;
38248;SDS011;24045;51.138;17.126;2023-07-22T20:31:49;12.80;;;6.00;;
38248;SDS011;24045;51.138;17.126;2023-07-22T20:46:52;8.70;;;4.90;;
38248;SDS011;24045;51.138;17.126;2023-07-22T21:01:54;12.30;;;6.60;;
38248;SDS011;24045;51.138;17.126;2023-07-22T21:32:00;12.40;;;6.50;;
38248;SDS011;24045;51.138;17.126;2023-07-22T21:47:04;15.20;;;7.20;;
38248;SDS011;24045;51.138;17.126;2023-07-22T22:02:07;12.50;;;7.10;;
38248;SDS011;24045;51.138;17.126;2023-07-22T22:17:10;15.00;;;8.20;;
38248;SDS011;24045;51.138;17.126;2023-07-22T22:32:15;13.60;;;7.50;;
38248;SDS011;24045;51.138;17.126;2023-07-22T22:47:18;15.30;;;8.00;;
38248;SDS011;24045;51.138;17.126;2023-07-22T23:17:24;13.90;;;8.70;;
38248;SDS011;24045;51.138;17.126;2023-07-22T23:32:27;13.90;;;8.00;;
38248;SDS011;24045;51.138;17.126;2023-07-22T23:47:30;15.60;;;9.20;;
